Plata Pioneer — V7IW7 — position and weather

sailwx.info

Track history (hours):
 
Tides and Currents Weather Stations Pressure Air Temp Water Temp Dewpoint Dewpoint Depression Visibility Wind Speed Wind Dir Waves Ship Positions

Plata Pioneer

Last reported at 2017-Sep-21 09:05 UTC. Time now 2017-Sep-23 00:28 UTC.
Position N 31°15' W 118°05'.

Length 333 m; draft 13.5 m.

Type: Tanker. MMSI: 538006006.

Date/timePositionNaut miles runAvg speedWind from/ knotsBaromVisibWave heightAir tempDewpointWater temp
2017-Sep-21 09:05N 31°15' W 118°05'0 1.2
2017-Sep-21 09:00N 31°15' W 118°05'1 1.2
2017-Sep-21 08:29N 31°15' W 118°05'1 1.1
2017-Sep-21 07:24N 31°17' W 118°06'1 1.1
2017-Sep-21 06:40N 31°17' W 118°06'1 1.1
2017-Sep-21 05:56N 31°18' W 118°06'1 1.2
2017-Sep-21 05:26N 31°19' W 118°07'1 1.1
2017-Sep-21 04:51N 31°19' W 118°07'0 1.1
2017-Sep-21 04:28N 31°20' W 118°08'0 1.1
2017-Sep-21 04:00N 31°20' W 118°08'1 1.2
2017-Sep-21 03:30N 31°20' W 118°09'1 1.0
2017-Sep-21 02:58N 31°21' W 118°09'0 1.0
2017-Sep-21 02:30N 31°21' W 118°10'0 0.9
2017-Sep-21 02:00N 31°21' W 118°10'1 1.0
2017-Sep-21 01:23N 31°21' W 118°11'1 1.1
2017-Sep-21 00:49N 31°22' W 118°11'0 1.0
2017-Sep-21 00:29N 31°22' W 118°12'1 0.9
2017-Sep-20 23:54N 31°22' W 118°12'0 0.8
2017-Sep-20 23:30N 31°22' W 118°12'1 0.8
2017-Sep-20 22:35N 31°22' W 118°13'0 0.8
2017-Sep-20 22:27N 31°22' W 118°13'0 0.5
2017-Sep-20 22:01N 31°22' W 118°14'0 0.5
2017-Sep-20 21:28N 31°23' W 118°14'0 0.6
2017-Sep-20 21:00N 31°23' W 118°14'0 0.5
2017-Sep-20 20:30N 31°23' W 118°14'0 0.5
2017-Sep-20 20:00N 31°23' W 118°15'0 0.5
2017-Sep-20 19:30N 31°23' W 118°15'0 0.5
2017-Sep-20 18:56N 31°23' W 118°15'0 0.6
2017-Sep-20 18:29N 31°24' W 118°15'1 1.5
2017-Sep-20 18:00N 31°24' W 118°15'4 8.3
2017-Sep-20 17:30N 31°23' W 118°10'610.0
2017-Sep-20 16:54N 31°21' W 118°04'18 3.7
2017-Sep-20 12:00N 31°18' W 117°42'1 1.1
2017-Sep-20 11:29N 31°19' W 117°42'1 1.2
2017-Sep-20 10:58N 31°20' W 117°43'1 1.2
2017-Sep-20 10:30N 31°20' W 117°43'1 1.2
2017-Sep-20 09:43N 31°21' W 117°43'0 1.2
2017-Sep-20 09:30N 31°21' W 117°43'1 1.3
2017-Sep-20 09:00N 31°22' W 117°43'1 1.1
2017-Sep-20 08:30N 31°22' W 117°44'1 1.3
2017-Sep-20 08:00N 31°23' W 117°44'1 1.2
2017-Sep-20 07:30N 31°24' W 117°44'1 1.2
2017-Sep-20 07:00N 31°24' W 117°45'1 1.1
2017-Sep-20 06:21N 31°25' W 117°45'0 1.1
2017-Sep-20 06:00N 31°25' W 117°45'1 1.0
2017-Sep-20 05:20N 31°26' W 117°46'1 1.0
2017-Sep-20 04:48N 31°26' W 117°46'0 1.0
2017-Sep-20 04:30N 31°26' W 117°46'1 1.1
2017-Sep-20 03:58N 31°27' W 117°47'0 1.0
2017-Sep-20 03:30N 31°27' W 117°47'1 1.1
2017-Sep-20 03:00N 31°28' W 117°47'1 1.2
2017-Sep-20 02:30N 31°28' W 117°48'1 1.1
2017-Sep-20 02:00N 31°29' W 117°48'1 1.3
2017-Sep-20 01:30N 31°29' W 117°49'1 1.4
2017-Sep-20 01:00N 31°30' W 117°49'1 1.5
2017-Sep-20 00:30N 31°30' W 117°50'1 1.4
2017-Sep-20 00:00N 31°30' W 117°50'1 1.2
2017-Sep-19 23:30N 31°31' W 117°51'1 1.2
2017-Sep-19 23:00N 31°31' W 117°52'1 1.0
2017-Sep-19 22:30N 31°31' W 117°52'0 0.8
2017-Sep-19 22:00N 31°31' W 117°53'0 0.9
2017-Sep-19 21:30N 31°32' W 117°53'0 0.8
2017-Sep-19 20:59N 31°32' W 117°54'0 0.9
2017-Sep-19 20:30N 31°32' W 117°54'0 0.7
2017-Sep-19 19:51N 31°32' W 117°55'0 0.6
2017-Sep-19 19:23N 31°32' W 117°55'0 0.5
2017-Sep-19 19:00N 31°32' W 117°55'0 0.5
2017-Sep-19 18:29N 31°33' W 117°55'0 0.4
2017-Sep-19 18:00N 31°33' W 117°55'0 0.4
2017-Sep-19 17:30N 31°33' W 117°56'0 0.3
2017-Sep-19 16:51N 31°33' W 117°56'0 0.4
2017-Sep-19 16:30N 31°33' W 117°56'1 0.3
2017-Sep-19 14:55N 31°34' W 117°56'0 0.4
2017-Sep-19 14:15N 31°34' W 117°56'0 0.5
2017-Sep-19 13:30N 31°34' W 117°56'1 0.6
2017-Sep-19 11:42N 31°35' W 117°57'0 0.6
2017-Sep-19 11:30N 31°35' W 117°57'0 0.6
2017-Sep-19 11:00N 31°36' W 117°57'0 0.7
2017-Sep-19 10:30N 31°36' W 117°57'0 0.8
2017-Sep-19 09:58N 31°36' W 117°57'0 0.7
2017-Sep-19 09:30N 31°37' W 117°57'0 0.8
2017-Sep-19 09:00N 31°37' W 117°58'0 0.8
2017-Sep-19 08:30N 31°37' W 117°58'1 0.8
2017-Sep-19 07:37N 31°38' W 117°59'0 0.9
2017-Sep-19 07:27N 31°38' W 117°59'0 0.8
2017-Sep-19 07:00N 31°38' W 117°59'0 0.7
2017-Sep-19 06:30N 31°38' W 117°59'0 0.6
2017-Sep-19 05:55N 31°39' W 117°60'0 0.5
2017-Sep-19 05:13N 31°39' W 117°60'0 0.6
2017-Sep-19 05:00N 31°39' W 118°00'0 0.5
2017-Sep-19 04:31N 31°39' W 118°00'1 0.5
2017-Sep-19 03:33N 31°39' W 118°01'0 0.4
2017-Sep-19 03:30N 31°39' W 118°01'0 0.6
2017-Sep-19 03:00N 31°40' W 118°01'0 0.7
2017-Sep-19 02:29N 31°40' W 118°01'0 0.6
2017-Sep-19 02:00N 31°40' W 118°02'0 0.7
2017-Sep-19 01:30N 31°40' W 118°02'0 0.6
2017-Sep-19 01:00N 31°40' W 118°02'1 0.6
2017-Sep-19 00:07N 31°41' W 118°03'0 0.6
2017-Sep-19 00:00N 31°41' W 118°03'0 0.6
2017-Sep-18 23:29N 31°41' W 118°03'0 0.6
2017-Sep-18 22:53N 31°41' W 118°04'0 0.6
2017-Sep-18 22:30N 31°41' W 118°04'0 0.7
2017-Sep-18 22:00N 31°41' W 118°04'0 0.8
2017-Sep-18 21:30N 31°41' W 118°05'0 0.7
2017-Sep-18 21:00N 31°41' W 118°05'0 0.6
2017-Sep-18 20:30N 31°41' W 118°06'0 0.7
2017-Sep-18 20:00N 31°41' W 118°06'0 0.6
2017-Sep-18 19:30N 31°41' W 118°06'0 0.8
2017-Sep-18 19:00N 31°41' W 118°07'1 1.3
2017-Sep-18 18:30N 31°42' W 118°06'4 8.4
2017-Sep-18 18:00N 31°42' W 118°01'510.5
2017-Sep-18 17:30N 31°42' W 117°55'510.6
2017-Sep-18 17:00N 31°43' W 117°49'510.5
2017-Sep-18 16:30N 31°43' W 117°43'510.2
2017-Sep-18 16:00N 31°44' W 117°37'5 9.9
2017-Sep-18 15:30N 31°44' W 117°31'2 3.5
2017-Sep-18 14:51N 31°44' W 117°28'1 0.8
2017-Sep-18 14:12N 31°44' W 117°29'0 0.8
2017-Sep-18 13:40N 31°44' W 117°29'0 0.7
2017-Sep-18 13:30N 31°44' W 117°30'0 0.8
2017-Sep-18 13:00N 31°45' W 117°30'1 0.6
2017-Sep-18 11:12N 31°45' W 117°31'0 0.6
2017-Sep-18 10:56N 31°45' W 117°31'0 0.6
2017-Sep-18 10:24N 31°45' W 117°32'0 0.7
2017-Sep-18 09:53N 31°45' W 117°32'1 0.8
2017-Sep-18 08:45N 31°46' W 117°33'0 0.7
2017-Sep-18 08:19N 31°46' W 117°33'0 0.8
2017-Sep-18 07:46N 31°46' W 117°33'5 0.8
2017-Sep-18 01:32N 31°48' W 117°39'0 1.5
2017-Sep-18 01:30N 31°48' W 117°39'6 0.8
2017-Sep-17 18:26N 31°47' W 117°45'0 0.5
2017-Sep-17 17:29N 31°46' W 117°45'2 0.4
2017-Sep-17 12:17N 31°45' W 117°48'3 0.9
2017-Sep-17 08:30N 31°45' W 117°52'1 1.0
2017-Sep-17 07:53N 31°44' W 117°52'0 1.0
2017-Sep-17 07:29N 31°44' W 117°53'1 1.0
2017-Sep-17 06:52N 31°44' W 117°53'1 1.0
2017-Sep-17 06:04N 31°44' W 117°54'0 0.8
2017-Sep-17 06:00N 31°44' W 117°54'1 1.0
2017-Sep-17 05:26N 31°44' W 117°55'0 1.0
2017-Sep-17 04:58N 31°44' W 117°55'0 1.0
2017-Sep-17 04:30N 31°43' W 117°56'1 1.0
2017-Sep-17 04:00N 31°43' W 117°57'1 1.0
2017-Sep-17 03:17N 31°43' W 117°57'0 1.0
2017-Sep-17 03:00N 31°43' W 117°58'1 1.1
2017-Sep-17 02:28N 31°43' W 117°58'0 1.0
2017-Sep-17 02:00N 31°43' W 117°59'1 1.1
2017-Sep-17 01:27N 31°43' W 117°60'0 1.1
2017-Sep-17 01:00N 31°42' W 118°00'1 1.2
2017-Sep-17 00:30N 31°42' W 118°01'1 1.5
2017-Sep-17 00:00N 31°42' W 118°01'3 6.8
2017-Sep-16 23:30N 31°43' W 117°58'5 9.0
2017-Sep-16 22:57N 31°46' W 117°53'4 9.0
2017-Sep-16 22:29N 31°48' W 117°49'4 9.1
2017-Sep-16 22:00N 31°51' W 117°45'5 9.8
2017-Sep-16 21:30N 31°54' W 117°40'5 9.4
2017-Sep-16 21:00N 31°56' W 117°36'0 0.1
2017-Sep-16 19:48N 31°57' W 117°35'0 1.1
2017-Sep-16 19:26N 31°57' W 117°36'0 1.1
2017-Sep-16 18:59N 31°57' W 117°36'2 1.1
2017-Sep-16 16:48N 31°57' W 117°39'0 1.1
2017-Sep-16 16:23N 31°57' W 117°40'1 1.2
2017-Sep-16 15:56N 31°57' W 117°41'1 1.2
2017-Sep-16 15:07N 31°57' W 117°42'0 0.9
2017-Sep-16 15:00N 31°57' W 117°42'1 1.2
2017-Sep-16 14:29N 31°57' W 117°43'1 1.3
2017-Sep-16 13:52N 31°57' W 117°43'0 1.3
2017-Sep-16 13:30N 31°57' W 117°44'1 1.3
2017-Sep-16 12:56N 31°56' W 117°45'1 1.5
2017-Sep-16 12:30N 31°56' W 117°46'1 1.4
2017-Sep-16 11:59N 31°56' W 117°47'1 1.4
2017-Sep-16 11:30N 31°56' W 117°47'7 1.3
2017-Sep-16 06:02N 31°54' W 117°55'0 1.3
2017-Sep-16 05:45N 31°54' W 117°56'0 1.2
2017-Sep-16 05:22N 31°53' W 117°56'0 1.2
2017-Sep-16 04:59N 31°53' W 117°57'1 1.1
2017-Sep-16 04:28N 31°53' W 117°57'1 1.2
2017-Sep-16 03:48N 31°53' W 117°58'0 1.0
2017-Sep-16 03:29N 31°53' W 117°59'1 1.2
2017-Sep-16 03:00N 31°53' W 117°59'1 1.2
2017-Sep-16 01:54N 31°52' W 118°01'1 1.2
2017-Sep-16 01:07N 31°52' W 118°02'0 1.6
2017-Sep-16 01:00N 31°52' W 118°02'1 1.8
2017-Sep-16 00:30N 31°53' W 118°02'1 2.8
2017-Sep-16 00:00N 31°51' W 118°02'5 8.5
2017-Sep-15 23:27N 31°51' W 117°56'9 0.7
2017-Sep-15 10:09N 31°56' W 117°47'0 0.6
2017-Sep-15 09:27N 31°56' W 117°48'0 0.6
2017-Sep-15 08:59N 31°56' W 117°48'0 0.6
2017-Sep-15 08:30N 31°56' W 117°48'0 0.5
2017-Sep-15 08:00N 31°56' W 117°48'0 0.5
2017-Sep-15 07:28N 31°57' W 117°49'0 0.6
2017-Sep-15 07:00N 31°57' W 117°49'0 0.5
2017-Sep-15 06:30N 31°57' W 117°49'0 0.5
2017-Sep-15 05:51N 31°57' W 117°49'0 0.5
2017-Sep-15 05:30N 31°57' W 117°50'1 0.5
2017-Sep-15 04:15N 31°58' W 117°50'0 0.5
2017-Sep-15 03:46N 31°58' W 117°50'0 0.7
2017-Sep-15 03:30N 31°58' W 117°50'1 0.7
2017-Sep-15 02:21N 31°59' W 117°50'0 0.7
2017-Sep-15 01:40N 31°59' W 117°51'0 0.6
2017-Sep-15 01:29N 31°59' W 117°51'0 0.6
2017-Sep-15 00:47N 31°60' W 117°51'0 0.6
2017-Sep-15 00:24N 31°60' W 117°51'0 0.7
2017-Sep-14 23:55N 32°00' W 117°52'0 0.6
2017-Sep-14 23:20N 32°00' W 117°52'0 0.6
2017-Sep-14 23:00N 32°01' W 117°52'0 0.7
2017-Sep-14 22:30N 32°01' W 117°52'0 0.6
2017-Sep-14 22:00N 32°01' W 117°53'0 0.7
2017-Sep-14 21:30N 32°01' W 117°53'0 0.7
2017-Sep-14 20:59N 32°01' W 117°53'0 0.6
2017-Sep-14 20:30N 32°01' W 117°54'0 0.6
2017-Sep-14 19:59N 32°01' W 117°54'0 0.7
2017-Sep-14 19:24N 32°02' W 117°55'0 0.6
2017-Sep-14 18:58N 32°02' W 117°55'0 0.6
2017-Sep-14 18:29N 32°02' W 117°55'0 0.7
2017-Sep-14 18:00N 32°02' W 117°56'1 0.7
2017-Sep-14 17:12N 32°02' W 117°56'0 0.5
2017-Sep-14 16:57N 32°01' W 117°56'0 0.4
2017-Sep-14 16:25N 32°01' W 117°57'0 0.4
2017-Sep-14 15:42N 32°01' W 117°57'6 2.8
2017-Sep-14 13:36N 32°07' W 117°55'110.4
2017-Sep-14 13:30N 32°08' W 117°54'510.4
2017-Sep-14 13:00N 32°13' W 117°53'510.4
2017-Sep-14 12:30N 32°18' W 117°52'510.5
2017-Sep-14 12:00N 32°23' W 117°51'510.5
2017-Sep-14 11:30N 32°28' W 117°49'510.4
2017-Sep-14 11:00N 32°33' W 117°49'510.0
2017-Sep-14 10:31N 32°38' W 117°50'510.3
2017-Sep-14 10:00N 32°43' W 117°52'510.4
2017-Sep-14 09:30N 32°48' W 117°54'510.5
2017-Sep-14 09:00N 32°53' W 117°56'510.4
2017-Sep-14 08:30N 32°58' W 117°58'510.4
2017-Sep-14 08:00N 33°03' W 117°59'510.5
2017-Sep-14 07:30N 33°08' W 118°02'510.3
2017-Sep-14 07:00N 33°13' W 118°04'510.4
2017-Sep-14 06:30N 33°18' W 118°06'510.6
2017-Sep-14 06:01N 33°23' W 118°08'510.7
2017-Sep-14 05:30N 33°28' W 118°10'510.9
2017-Sep-14 05:01N 33°33' W 118°12'5 9.7
2017-Sep-14 04:31N 33°38' W 118°12'4 8.8
2017-Sep-14 04:00N 33°42' W 118°11'2 4.1
2017-Sep-14 03:30N 33°44' W 118°12'0 0.3
2017-Sep-14 03:01N 33°44' W 118°12'0 0.1
2017-Sep-14 02:31N 33°44' W 118°12'0 0.1
2017-Sep-14 01:58N 33°44' W 118°12'0 0.0
2017-Sep-14 01:30N 33°44' W 118°12'0 0.0
2017-Sep-14 00:58N 33°44' W 118°12'0 0.0
2017-Sep-14 00:30N 33°44' W 118°12'0 0.0
2017-Sep-14 00:00N 33°44' W 118°12'0 0.1
2017-Sep-13 23:30N 33°44' W 118°12'0 0.1
2017-Sep-13 23:00N 33°44' W 118°12'0 0.0
2017-Sep-13 22:28N 33°44' W 118°12'0 0.0
2017-Sep-13 21:55N 33°44' W 118°12'0 0.0
2017-Sep-13 21:31N 33°44' W 118°12'0 0.0
2017-Sep-13 21:01N 33°44' W 118°12'0 0.0
2017-Sep-13 20:30N 33°44' W 118°12'0 0.0
2017-Sep-13 20:01N 33°44' W 118°12'0 0.1
2017-Sep-13 19:31N 33°44' W 118°12'1 1.6
2017-Sep-13 19:00N 33°44' W 118°11'3 5.7
2017-Sep-13 18:30N 33°41' W 118°11'3 5.7
2017-Sep-13 18:00N 33°38' W 118°10'2 4.7
2017-Sep-13 17:30N 33°36' W 118°09'4 7.8
2017-Sep-13 17:00N 33°32' W 118°08'5 9.6
2017-Sep-13 16:30N 33°28' W 118°05'510.7
2017-Sep-13 16:00N 33°22' W 118°04'611.0
2017-Sep-13 15:30N 33°17' W 118°02'510.9
2017-Sep-13 15:00N 33°12' W 118°01'611.2
2017-Sep-13 14:30N 33°06' W 118°02'511.0
2017-Sep-13 14:00N 33°01' W 118°02'611.0
2017-Sep-13 13:30N 32°55' W 118°03'611.0
2017-Sep-13 13:00N 32°50' W 118°03'511.0
2017-Sep-13 12:30N 32°44' W 118°05'611.1
2017-Sep-13 12:00N 32°39' W 118°07'510.9
2017-Sep-13 11:30N 32°35' W 118°12'511.0
2017-Sep-13 11:00N 32°31' W 118°16'811.2
2017-Sep-13 10:19N 32°26' W 118°23'311.1
2017-Sep-13 10:00N 32°23' W 118°26'510.8
2017-Sep-13 09:30N 32°20' W 118°30'510.5
2017-Sep-13 09:00N 32°16' W 118°35'610.5
2017-Sep-13 08:26N 32°12' W 118°40'610.4
2017-Sep-13 07:52N 32°08' W 118°45'510.3
2017-Sep-13 07:22N 32°04' W 118°49'610.1
2017-Sep-13 06:48N 32°00' W 118°54'310.0
2017-Sep-13 06:30N 31°58' W 118°57'6 9.9
2017-Sep-13 05:52N 31°54' W 119°02'10 9.6
2017-Sep-13 04:50N 31°47' W 119°11'2 5.1
2017-Sep-13 04:30N 31°46' W 119°12'1 1.3
2017-Sep-13 03:35N 31°47' W 119°13'0 1.1
2017-Sep-13 03:24N 31°47' W 119°13'1 1.5
2017-Sep-13 02:31N 31°48' W 119°14'0 2.3
2017-Sep-13 02:29N 31°48' W 119°14'1 1.1
2017-Sep-13 02:00N 31°49' W 119°15'1 1.2
2017-Sep-13 01:22N 31°50' W 119°15'0 1.4
2017-Sep-13 01:00N 31°50' W 119°15'1 1.4
2017-Sep-13 00:30N 31°51' W 119°16'1 1.5
2017-Sep-13 00:00N 31°51' W 119°16'1 1.4
2017-Sep-12 23:30N 31°52' W 119°17'2 1.5
2017-Sep-12 22:01N 31°53' W 119°18'0 4.8
2017-Sep-12 22:00N 31°53' W 119°18'1 1.6
2017-Sep-12 21:30N 31°54' W 119°19'1 1.5
2017-Sep-12 21:00N 31°54' W 119°20'1 1.7
2017-Sep-12 20:10N 31°55' W 119°21'0 1.4
2017-Sep-12 19:55N 31°55' W 119°22'1 1.4
2017-Sep-12 19:29N 31°55' W 119°22'1 1.2
2017-Sep-12 19:00N 31°56' W 119°23'1 1.0
2017-Sep-12 18:29N 31°56' W 119°23'1 0.9
2017-Sep-12 17:54N 31°56' W 119°24'0 1.0
2017-Sep-12 17:25N 31°56' W 119°25'2 0.7
2017-Sep-12 14:55N 31°57' W 119°26'0 0.5
2017-Sep-12 14:30N 31°58' W 119°26'0 0.4
2017-Sep-12 13:50N 31°58' W 119°27'0 0.4
2017-Sep-12 12:49N 31°58' W 119°27'0 0.4
2017-Sep-12 12:30N 31°58' W 119°27'0 0.5
2017-Sep-12 12:00N 31°59' W 119°27'0 0.6
2017-Sep-12 11:16N 31°59' W 119°27'0 0.7
2017-Sep-12 11:00N 31°59' W 119°27'0 0.6
2017-Sep-12 10:30N 31°59' W 119°26'0 0.8
2017-Sep-12 09:56N 31°60' W 119°27'0 0.9
2017-Sep-12 09:30N 32°00' W 119°26'1 1.1
2017-Sep-12 09:00N 32°01' W 119°27'1 1.1
2017-Sep-12 08:30N 32°01' W 119°26'1 1.2
2017-Sep-12 07:43N 32°02' W 119°27'0 1.3
2017-Sep-12 07:30N 32°03' W 119°27'1 1.3
2017-Sep-12 07:00N 32°03' W 119°27'1 1.4
2017-Sep-12 06:21N 32°04' W 119°27'1 1.5
2017-Sep-12 06:00N 32°05' W 119°27'1 1.5
2017-Sep-12 05:30N 32°05' W 119°28'1 1.5
2017-Sep-12 05:00N 32°06' W 119°28'1 1.5
2017-Sep-12 04:30N 32°07' W 119°28'1 1.6
2017-Sep-12 04:00N 32°07' W 119°29'1 1.7
2017-Sep-12 03:30N 32°08' W 119°29'1 1.7
2017-Sep-12 03:00N 32°09' W 119°30'1 1.4
2017-Sep-12 02:30N 32°09' W 119°31'1 1.4
2017-Sep-12 01:48N 32°10' W 119°31'0 1.4
2017-Sep-12 01:30N 32°10' W 119°32'1 1.5
2017-Sep-12 01:00N 32°11' W 119°32'1 1.4
2017-Sep-12 00:30N 32°11' W 119°33'1 1.3
2017-Sep-12 00:00N 32°11' W 119°34'1 1.3
2017-Sep-11 23:30N 32°12' W 119°35'1 1.6
2017-Sep-11 23:00N 32°12' W 119°35'1 2.8
2017-Sep-11 22:30N 32°13' W 119°37'2 4.7
2017-Sep-11 22:00N 32°14' W 119°39'4 1.8
2017-Sep-11 19:31N 32°16' W 119°44'0 0.0
2017-Sep-11 19:30N 32°16' W 119°44'0 0.3
2017-Sep-11 19:00N 32°16' W 119°44'0 0.2
2017-Sep-11 18:30N 32°16' W 119°44'0 0.2
2017-Sep-11 18:00N 32°16' W 119°45'0 0.3
2017-Sep-11 17:30N 32°16' W 119°45'0 0.3
2017-Sep-11 17:00N 32°16' W 119°45'0 0.6
2017-Sep-11 16:30N 32°16' W 119°45'0 0.7
2017-Sep-11 16:00N 32°16' W 119°46'0 0.8
2017-Sep-11 15:30N 32°16' W 119°46'1 1.4
2017-Sep-11 15:00N 32°17' W 119°47'1 2.1
2017-Sep-11 14:30N 32°16' W 119°47'3 5.2
2017-Sep-11 14:00N 32°13' W 119°46'3 4.7
2017-Sep-11 13:22N 32°10' W 119°44'0 0.8
2017-Sep-11 13:00N 32°11' W 119°44'0 0.3
2017-Sep-11 12:30N 32°11' W 119°44'  
Track history (hours):
 
Tides and Currents Weather Stations Pressure Air Temp Water Temp Dewpoint Dewpoint Depression Visibility Wind Speed Wind Dir Waves Ship Positions

Plata Pioneer

Last reported at 2017-Sep-21 09:05 UTC. Time now 2017-Sep-23 00:28 UTC.
Position N 31°15' W 118°05'.

Length 333 m; draft 13.5 m.

Type: Tanker. MMSI: 538006006.

Date/timePositionNaut miles runAvg speedWind from/ knotsBaromVisibWave heightAir tempDewpointWater temp
2017-Sep-21 09:05N 31°15' W 118°05'0 1.2
2017-Sep-21 09:00N 31°15' W 118°05'1 1.2
2017-Sep-21 08:29N 31°15' W 118°05'1 1.1
2017-Sep-21 07:24N 31°17' W 118°06'1 1.1
2017-Sep-21 06:40N 31°17' W 118°06'1 1.1
2017-Sep-21 05:56N 31°18' W 118°06'1 1.2
2017-Sep-21 05:26N 31°19' W 118°07'1 1.1
2017-Sep-21 04:51N 31°19' W 118°07'0 1.1
2017-Sep-21 04:28N 31°20' W 118°08'0 1.1
2017-Sep-21 04:00N 31°20' W 118°08'1 1.2
2017-Sep-21 03:30N 31°20' W 118°09'1 1.0
2017-Sep-21 02:58N 31°21' W 118°09'0 1.0
2017-Sep-21 02:30N 31°21' W 118°10'0 0.9
2017-Sep-21 02:00N 31°21' W 118°10'1 1.0
2017-Sep-21 01:23N 31°21' W 118°11'1 1.1
2017-Sep-21 00:49N 31°22' W 118°11'0 1.0
2017-Sep-21 00:29N 31°22' W 118°12'1 0.9
2017-Sep-20 23:54N 31°22' W 118°12'0 0.8
2017-Sep-20 23:30N 31°22' W 118°12'1 0.8
2017-Sep-20 22:35N 31°22' W 118°13'0 0.8
2017-Sep-20 22:27N 31°22' W 118°13'0 0.5
2017-Sep-20 22:01N 31°22' W 118°14'0 0.5
2017-Sep-20 21:28N 31°23' W 118°14'0 0.6
2017-Sep-20 21:00N 31°23' W 118°14'0 0.5
2017-Sep-20 20:30N 31°23' W 118°14'0 0.5
2017-Sep-20 20:00N 31°23' W 118°15'0 0.5
2017-Sep-20 19:30N 31°23' W 118°15'0 0.5
2017-Sep-20 18:56N 31°23' W 118°15'0 0.6
2017-Sep-20 18:29N 31°24' W 118°15'1 1.5
2017-Sep-20 18:00N 31°24' W 118°15'4 8.3
2017-Sep-20 17:30N 31°23' W 118°10'610.0
2017-Sep-20 16:54N 31°21' W 118°04'18 3.7
2017-Sep-20 12:00N 31°18' W 117°42'1 1.1
2017-Sep-20 11:29N 31°19' W 117°42'1 1.2
2017-Sep-20 10:58N 31°20' W 117°43'1 1.2
2017-Sep-20 10:30N 31°20' W 117°43'1 1.2
2017-Sep-20 09:43N 31°21' W 117°43'0 1.2
2017-Sep-20 09:30N 31°21' W 117°43'1 1.3
2017-Sep-20 09:00N 31°22' W 117°43'1 1.1
2017-Sep-20 08:30N 31°22' W 117°44'1 1.3
2017-Sep-20 08:00N 31°23' W 117°44'1 1.2
2017-Sep-20 07:30N 31°24' W 117°44'1 1.2
2017-Sep-20 07:00N 31°24' W 117°45'1 1.1
2017-Sep-20 06:21N 31°25' W 117°45'0 1.1
2017-Sep-20 06:00N 31°25' W 117°45'1 1.0
2017-Sep-20 05:20N 31°26' W 117°46'1 1.0
2017-Sep-20 04:48N 31°26' W 117°46'0 1.0
2017-Sep-20 04:30N 31°26' W 117°46'1 1.1
2017-Sep-20 03:58N 31°27' W 117°47'0 1.0
2017-Sep-20 03:30N 31°27' W 117°47'1 1.1
2017-Sep-20 03:00N 31°28' W 117°47'1 1.2
2017-Sep-20 02:30N 31°28' W 117°48'1 1.1
2017-Sep-20 02:00N 31°29' W 117°48'1 1.3
2017-Sep-20 01:30N 31°29' W 117°49'1 1.4
2017-Sep-20 01:00N 31°30' W 117°49'1 1.5
2017-Sep-20 00:30N 31°30' W 117°50'1 1.4
2017-Sep-20 00:00N 31°30' W 117°50'1 1.2
2017-Sep-19 23:30N 31°31' W 117°51'1 1.2
2017-Sep-19 23:00N 31°31' W 117°52'1 1.0
2017-Sep-19 22:30N 31°31' W 117°52'0 0.8
2017-Sep-19 22:00N 31°31' W 117°53'0 0.9
2017-Sep-19 21:30N 31°32' W 117°53'0 0.8
2017-Sep-19 20:59N 31°32' W 117°54'0 0.9
2017-Sep-19 20:30N 31°32' W 117°54'0 0.7
2017-Sep-19 19:51N 31°32' W 117°55'0 0.6
2017-Sep-19 19:23N 31°32' W 117°55'0 0.5
2017-Sep-19 19:00N 31°32' W 117°55'0 0.5
2017-Sep-19 18:29N 31°33' W 117°55'0 0.4
2017-Sep-19 18:00N 31°33' W 117°55'0 0.4
2017-Sep-19 17:30N 31°33' W 117°56'0 0.3
2017-Sep-19 16:51N 31°33' W 117°56'0 0.4
2017-Sep-19 16:30N 31°33' W 117°56'1 0.3
2017-Sep-19 14:55N 31°34' W 117°56'0 0.4
2017-Sep-19 14:15N 31°34' W 117°56'0 0.5
2017-Sep-19 13:30N 31°34' W 117°56'1 0.6
2017-Sep-19 11:42N 31°35' W 117°57'0 0.6
2017-Sep-19 11:30N 31°35' W 117°57'0 0.6
2017-Sep-19 11:00N 31°36' W 117°57'0 0.7
2017-Sep-19 10:30N 31°36' W 117°57'0 0.8
2017-Sep-19 09:58N 31°36' W 117°57'0 0.7
2017-Sep-19 09:30N 31°37' W 117°57'0 0.8
2017-Sep-19 09:00N 31°37' W 117°58'0 0.8
2017-Sep-19 08:30N 31°37' W 117°58'1 0.8
2017-Sep-19 07:37N 31°38' W 117°59'0 0.9
2017-Sep-19 07:27N 31°38' W 117°59'0 0.8
2017-Sep-19 07:00N 31°38' W 117°59'0 0.7
2017-Sep-19 06:30N 31°38' W 117°59'0 0.6
2017-Sep-19 05:55N 31°39' W 117°60'0 0.5
2017-Sep-19 05:13N 31°39' W 117°60'0 0.6
2017-Sep-19 05:00N 31°39' W 118°00'0 0.5
2017-Sep-19 04:31N 31°39' W 118°00'1 0.5
2017-Sep-19 03:33N 31°39' W 118°01'0 0.4
2017-Sep-19 03:30N 31°39' W 118°01'0 0.6
2017-Sep-19 03:00N 31°40' W 118°01'0 0.7
2017-Sep-19 02:29N 31°40' W 118°01'0 0.6
2017-Sep-19 02:00N 31°40' W 118°02'0 0.7
2017-Sep-19 01:30N 31°40' W 118°02'0 0.6
2017-Sep-19 01:00N 31°40' W 118°02'1 0.6
2017-Sep-19 00:07N 31°41' W 118°03'0 0.6
2017-Sep-19 00:00N 31°41' W 118°03'0 0.6
2017-Sep-18 23:29N 31°41' W 118°03'0 0.6
2017-Sep-18 22:53N 31°41' W 118°04'0 0.6
2017-Sep-18 22:30N 31°41' W 118°04'0 0.7
2017-Sep-18 22:00N 31°41' W 118°04'0 0.8
2017-Sep-18 21:30N 31°41' W 118°05'0 0.7
2017-Sep-18 21:00N 31°41' W 118°05'0 0.6
2017-Sep-18 20:30N 31°41' W 118°06'0 0.7
2017-Sep-18 20:00N 31°41' W 118°06'0 0.6
2017-Sep-18 19:30N 31°41' W 118°06'0 0.8
2017-Sep-18 19:00N 31°41' W 118°07'1 1.3
2017-Sep-18 18:30N 31°42' W 118°06'4 8.4
2017-Sep-18 18:00N 31°42' W 118°01'510.5
2017-Sep-18 17:30N 31°42' W 117°55'510.6
2017-Sep-18 17:00N 31°43' W 117°49'510.5
2017-Sep-18 16:30N 31°43' W 117°43'510.2
2017-Sep-18 16:00N 31°44' W 117°37'5 9.9
2017-Sep-18 15:30N 31°44' W 117°31'2 3.5
2017-Sep-18 14:51N 31°44' W 117°28'1 0.8
2017-Sep-18 14:12N 31°44' W 117°29'0 0.8
2017-Sep-18 13:40N 31°44' W 117°29'0 0.7
2017-Sep-18 13:30N 31°44' W 117°30'0 0.8
2017-Sep-18 13:00N 31°45' W 117°30'1 0.6
2017-Sep-18 11:12N 31°45' W 117°31'0 0.6
2017-Sep-18 10:56N 31°45' W 117°31'0 0.6
2017-Sep-18 10:24N 31°45' W 117°32'0 0.7
2017-Sep-18 09:53N 31°45' W 117°32'1 0.8
2017-Sep-18 08:45N 31°46' W 117°33'0 0.7
2017-Sep-18 08:19N 31°46' W 117°33'0 0.8
2017-Sep-18 07:46N 31°46' W 117°33'5 0.8
2017-Sep-18 01:32N 31°48' W 117°39'0 1.5
2017-Sep-18 01:30N 31°48' W 117°39'6 0.8
2017-Sep-17 18:26N 31°47' W 117°45'0 0.5
2017-Sep-17 17:29N 31°46' W 117°45'2 0.4
2017-Sep-17 12:17N 31°45' W 117°48'3 0.9
2017-Sep-17 08:30N 31°45' W 117°52'1 1.0
2017-Sep-17 07:53N 31°44' W 117°52'0 1.0
2017-Sep-17 07:29N 31°44' W 117°53'1 1.0
2017-Sep-17 06:52N 31°44' W 117°53'1 1.0
2017-Sep-17 06:04N 31°44' W 117°54'0 0.8
2017-Sep-17 06:00N 31°44' W 117°54'1 1.0
2017-Sep-17 05:26N 31°44' W 117°55'0 1.0
2017-Sep-17 04:58N 31°44' W 117°55'0 1.0
2017-Sep-17 04:30N 31°43' W 117°56'1 1.0
2017-Sep-17 04:00N 31°43' W 117°57'1 1.0
2017-Sep-17 03:17N 31°43' W 117°57'0 1.0
2017-Sep-17 03:00N 31°43' W 117°58'1 1.1
2017-Sep-17 02:28N 31°43' W 117°58'0 1.0
2017-Sep-17 02:00N 31°43' W 117°59'1 1.1
2017-Sep-17 01:27N 31°43' W 117°60'0 1.1
2017-Sep-17 01:00N 31°42' W 118°00'1 1.2
2017-Sep-17 00:30N 31°42' W 118°01'1 1.5
2017-Sep-17 00:00N 31°42' W 118°01'3 6.8
2017-Sep-16 23:30N 31°43' W 117°58'5 9.0
2017-Sep-16 22:57N 31°46' W 117°53'4 9.0
2017-Sep-16 22:29N 31°48' W 117°49'4 9.1
2017-Sep-16 22:00N 31°51' W 117°45'5 9.8
2017-Sep-16 21:30N 31°54' W 117°40'5 9.4
2017-Sep-16 21:00N 31°56' W 117°36'0 0.1
2017-Sep-16 19:48N 31°57' W 117°35'0 1.1
2017-Sep-16 19:26N 31°57' W 117°36'0 1.1
2017-Sep-16 18:59N 31°57' W 117°36'2 1.1
2017-Sep-16 16:48N 31°57' W 117°39'0 1.1
2017-Sep-16 16:23N 31°57' W 117°40'1 1.2
2017-Sep-16 15:56N 31°57' W 117°41'1 1.2
2017-Sep-16 15:07N 31°57' W 117°42'0 0.9
2017-Sep-16 15:00N 31°57' W 117°42'1 1.2
2017-Sep-16 14:29N 31°57' W 117°43'1 1.3
2017-Sep-16 13:52N 31°57' W 117°43'0 1.3
2017-Sep-16 13:30N 31°57' W 117°44'1 1.3
2017-Sep-16 12:56N 31°56' W 117°45'1 1.5
2017-Sep-16 12:30N 31°56' W 117°46'1 1.4
2017-Sep-16 11:59N 31°56' W 117°47'1 1.4
2017-Sep-16 11:30N 31°56' W 117°47'7 1.3
2017-Sep-16 06:02N 31°54' W 117°55'0 1.3
2017-Sep-16 05:45N 31°54' W 117°56'0 1.2
2017-Sep-16 05:22N 31°53' W 117°56'0 1.2
2017-Sep-16 04:59N 31°53' W 117°57'1 1.1
2017-Sep-16 04:28N 31°53' W 117°57'1 1.2
2017-Sep-16 03:48N 31°53' W 117°58'0 1.0
2017-Sep-16 03:29N 31°53' W 117°59'1 1.2
2017-Sep-16 03:00N 31°53' W 117°59'1 1.2
2017-Sep-16 01:54N 31°52' W 118°01'1 1.2
2017-Sep-16 01:07N 31°52' W 118°02'0 1.6
2017-Sep-16 01:00N 31°52' W 118°02'1 1.8
2017-Sep-16 00:30N 31°53' W 118°02'1 2.8
2017-Sep-16 00:00N 31°51' W 118°02'5 8.5
2017-Sep-15 23:27N 31°51' W 117°56'9 0.7
2017-Sep-15 10:09N 31°56' W 117°47'0 0.6
2017-Sep-15 09:27N 31°56' W 117°48'0 0.6
2017-Sep-15 08:59N 31°56' W 117°48'0 0.6
2017-Sep-15 08:30N 31°56' W 117°48'0 0.5
2017-Sep-15 08:00N 31°56' W 117°48'0 0.5
2017-Sep-15 07:28N 31°57' W 117°49'0 0.6
2017-Sep-15 07:00N 31°57' W 117°49'0 0.5
2017-Sep-15 06:30N 31°57' W 117°49'0 0.5
2017-Sep-15 05:51N 31°57' W 117°49'0 0.5
2017-Sep-15 05:30N 31°57' W 117°50'1 0.5
2017-Sep-15 04:15N 31°58' W 117°50'0 0.5
2017-Sep-15 03:46N 31°58' W 117°50'0 0.7
2017-Sep-15 03:30N 31°58' W 117°50'1 0.7
2017-Sep-15 02:21N 31°59' W 117°50'0 0.7
2017-Sep-15 01:40N 31°59' W 117°51'0 0.6
2017-Sep-15 01:29N 31°59' W 117°51'0 0.6
2017-Sep-15 00:47N 31°60' W 117°51'0 0.6
2017-Sep-15 00:24N 31°60' W 117°51'0 0.7
2017-Sep-14 23:55N 32°00' W 117°52'0 0.6
2017-Sep-14 23:20N 32°00' W 117°52'0 0.6
2017-Sep-14 23:00N 32°01' W 117°52'0 0.7
2017-Sep-14 22:30N 32°01' W 117°52'0 0.6
2017-Sep-14 22:00N 32°01' W 117°53'0 0.7
2017-Sep-14 21:30N 32°01' W 117°53'0 0.7
2017-Sep-14 20:59N 32°01' W 117°53'0 0.6
2017-Sep-14 20:30N 32°01' W 117°54'0 0.6
2017-Sep-14 19:59N 32°01' W 117°54'0 0.7
2017-Sep-14 19:24N 32°02' W 117°55'0 0.6
2017-Sep-14 18:58N 32°02' W 117°55'0 0.6
2017-Sep-14 18:29N 32°02' W 117°55'0 0.7
2017-Sep-14 18:00N 32°02' W 117°56'1 0.7
2017-Sep-14 17:12N 32°02' W 117°56'0 0.5
2017-Sep-14 16:57N 32°01' W 117°56'0 0.4
2017-Sep-14 16:25N 32°01' W 117°57'0 0.4
2017-Sep-14 15:42N 32°01' W 117°57'6 2.8
2017-Sep-14 13:36N 32°07' W 117°55'110.4
2017-Sep-14 13:30N 32°08' W 117°54'510.4
2017-Sep-14 13:00N 32°13' W 117°53'510.4
2017-Sep-14 12:30N 32°18' W 117°52'510.5
2017-Sep-14 12:00N 32°23' W 117°51'510.5
2017-Sep-14 11:30N 32°28' W 117°49'510.4
2017-Sep-14 11:00N 32°33' W 117°49'510.0
2017-Sep-14 10:31N 32°38' W 117°50'510.3
2017-Sep-14 10:00N 32°43' W 117°52'510.4
2017-Sep-14 09:30N 32°48' W 117°54'510.5
2017-Sep-14 09:00N 32°53' W 117°56'510.4
2017-Sep-14 08:30N 32°58' W 117°58'510.4
2017-Sep-14 08:00N 33°03' W 117°59'510.5
2017-Sep-14 07:30N 33°08' W 118°02'510.3
2017-Sep-14 07:00N 33°13' W 118°04'510.4
2017-Sep-14 06:30N 33°18' W 118°06'510.6
2017-Sep-14 06:01N 33°23' W 118°08'510.7
2017-Sep-14 05:30N 33°28' W 118°10'510.9
2017-Sep-14 05:01N 33°33' W 118°12'5 9.7
2017-Sep-14 04:31N 33°38' W 118°12'4 8.8
2017-Sep-14 04:00N 33°42' W 118°11'2 4.1
2017-Sep-14 03:30N 33°44' W 118°12'0 0.3
2017-Sep-14 03:01N 33°44' W 118°12'0 0.1
2017-Sep-14 02:31N 33°44' W 118°12'0 0.1
2017-Sep-14 01:58N 33°44' W 118°12'0 0.0
2017-Sep-14 01:30N 33°44' W 118°12'0 0.0
2017-Sep-14 00:58N 33°44' W 118°12'0 0.0
2017-Sep-14 00:30N 33°44' W 118°12'0 0.0
2017-Sep-14 00:00N 33°44' W 118°12'0 0.1
2017-Sep-13 23:30N 33°44' W 118°12'0 0.1
2017-Sep-13 23:00N 33°44' W 118°12'0 0.0
2017-Sep-13 22:28N 33°44' W 118°12'0 0.0
2017-Sep-13 21:55N 33°44' W 118°12'0 0.0
2017-Sep-13 21:31N 33°44' W 118°12'0 0.0
2017-Sep-13 21:01N 33°44' W 118°12'0 0.0
2017-Sep-13 20:30N 33°44' W 118°12'0 0.0
2017-Sep-13 20:01N 33°44' W 118°12'0 0.1
2017-Sep-13 19:31N 33°44' W 118°12'1 1.6
2017-Sep-13 19:00N 33°44' W 118°11'3 5.7
2017-Sep-13 18:30N 33°41' W 118°11'3 5.7
2017-Sep-13 18:00N 33°38' W 118°10'2 4.7
2017-Sep-13 17:30N 33°36' W 118°09'4 7.8
2017-Sep-13 17:00N 33°32' W 118°08'5 9.6
2017-Sep-13 16:30N 33°28' W 118°05'510.7
2017-Sep-13 16:00N 33°22' W 118°04'611.0
2017-Sep-13 15:30N 33°17' W 118°02'510.9
2017-Sep-13 15:00N 33°12' W 118°01'611.2
2017-Sep-13 14:30N 33°06' W 118°02'511.0
2017-Sep-13 14:00N 33°01' W 118°02'611.0
2017-Sep-13 13:30N 32°55' W 118°03'611.0
2017-Sep-13 13:00N 32°50' W 118°03'511.0
2017-Sep-13 12:30N 32°44' W 118°05'611.1
2017-Sep-13 12:00N 32°39' W 118°07'510.9
2017-Sep-13 11:30N 32°35' W 118°12'511.0
2017-Sep-13 11:00N 32°31' W 118°16'811.2
2017-Sep-13 10:19N 32°26' W 118°23'311.1
2017-Sep-13 10:00N 32°23' W 118°26'510.8
2017-Sep-13 09:30N 32°20' W 118°30'510.5
2017-Sep-13 09:00N 32°16' W 118°35'610.5
2017-Sep-13 08:26N 32°12' W 118°40'610.4
2017-Sep-13 07:52N 32°08' W 118°45'510.3
2017-Sep-13 07:22N 32°04' W 118°49'610.1
2017-Sep-13 06:48N 32°00' W 118°54'310.0
2017-Sep-13 06:30N 31°58' W 118°57'6 9.9
2017-Sep-13 05:52N 31°54' W 119°02'10 9.6
2017-Sep-13 04:50N 31°47' W 119°11'2 5.1
2017-Sep-13 04:30N 31°46' W 119°12'1 1.3
2017-Sep-13 03:35N 31°47' W 119°13'0 1.1
2017-Sep-13 03:24N 31°47' W 119°13'1 1.5
2017-Sep-13 02:31N 31°48' W 119°14'0 2.3
2017-Sep-13 02:29N 31°48' W 119°14'1 1.1
2017-Sep-13 02:00N 31°49' W 119°15'1 1.2
2017-Sep-13 01:22N 31°50' W 119°15'0 1.4
2017-Sep-13 01:00N 31°50' W 119°15'1 1.4
2017-Sep-13 00:30N 31°51' W 119°16'1 1.5
2017-Sep-13 00:00N 31°51' W 119°16'1 1.4
2017-Sep-12 23:30N 31°52' W 119°17'2 1.5
2017-Sep-12 22:01N 31°53' W 119°18'0 4.8
2017-Sep-12 22:00N 31°53' W 119°18'1 1.6
2017-Sep-12 21:30N 31°54' W 119°19'1 1.5
2017-Sep-12 21:00N 31°54' W 119°20'1 1.7
2017-Sep-12 20:10N 31°55' W 119°21'0 1.4
2017-Sep-12 19:55N 31°55' W 119°22'1 1.4
2017-Sep-12 19:29N 31°55' W 119°22'1 1.2
2017-Sep-12 19:00N 31°56' W 119°23'1 1.0
2017-Sep-12 18:29N 31°56' W 119°23'1 0.9
2017-Sep-12 17:54N 31°56' W 119°24'0 1.0
2017-Sep-12 17:25N 31°56' W 119°25'2 0.7
2017-Sep-12 14:55N 31°57' W 119°26'0 0.5
2017-Sep-12 14:30N 31°58' W 119°26'0 0.4
2017-Sep-12 13:50N 31°58' W 119°27'0 0.4
2017-Sep-12 12:49N 31°58' W 119°27'0 0.4
2017-Sep-12 12:30N 31°58' W 119°27'0 0.5
2017-Sep-12 12:00N 31°59' W 119°27'0 0.6
2017-Sep-12 11:16N 31°59' W 119°27'0 0.7
2017-Sep-12 11:00N 31°59' W 119°27'0 0.6
2017-Sep-12 10:30N 31°59' W 119°26'0 0.8
2017-Sep-12 09:56N 31°60' W 119°27'0 0.9
2017-Sep-12 09:30N 32°00' W 119°26'1 1.1
2017-Sep-12 09:00N 32°01' W 119°27'1 1.1
2017-Sep-12 08:30N 32°01' W 119°26'1 1.2
2017-Sep-12 07:43N 32°02' W 119°27'0 1.3
2017-Sep-12 07:30N 32°03' W 119°27'1 1.3
2017-Sep-12 07:00N 32°03' W 119°27'1 1.4
2017-Sep-12 06:21N 32°04' W 119°27'1 1.5
2017-Sep-12 06:00N 32°05' W 119°27'1 1.5
2017-Sep-12 05:30N 32°05' W 119°28'1 1.5
2017-Sep-12 05:00N 32°06' W 119°28'1 1.5
2017-Sep-12 04:30N 32°07' W 119°28'1 1.6
2017-Sep-12 04:00N 32°07' W 119°29'1 1.7
2017-Sep-12 03:30N 32°08' W 119°29'1 1.7
2017-Sep-12 03:00N 32°09' W 119°30'1 1.4
2017-Sep-12 02:30N 32°09' W 119°31'1 1.4
2017-Sep-12 01:48N 32°10' W 119°31'0 1.4
2017-Sep-12 01:30N 32°10' W 119°32'1 1.5
2017-Sep-12 01:00N 32°11' W 119°32'1 1.4
2017-Sep-12 00:30N 32°11' W 119°33'1 1.3
2017-Sep-12 00:00N 32°11' W 119°34'1 1.3
2017-Sep-11 23:30N 32°12' W 119°35'1 1.6
2017-Sep-11 23:00N 32°12' W 119°35'1 2.8
2017-Sep-11 22:30N 32°13' W 119°37'2 4.7
2017-Sep-11 22:00N 32°14' W 119°39'4 1.8
2017-Sep-11 19:31N 32°16' W 119°44'0 0.0
2017-Sep-11 19:30N 32°16' W 119°44'0 0.3
2017-Sep-11 19:00N 32°16' W 119°44'0 0.2
2017-Sep-11 18:30N 32°16' W 119°44'0 0.2
2017-Sep-11 18:00N 32°16' W 119°45'0 0.3
2017-Sep-11 17:30N 32°16' W 119°45'0 0.3
2017-Sep-11 17:00N 32°16' W 119°45'0 0.6
2017-Sep-11 16:30N 32°16' W 119°45'0 0.7
2017-Sep-11 16:00N 32°16' W 119°46'0 0.8
2017-Sep-11 15:30N 32°16' W 119°46'1 1.4
2017-Sep-11 15:00N 32°17' W 119°47'1 2.1
2017-Sep-11 14:30N 32°16' W 119°47'3 5.2
2017-Sep-11 14:00N 32°13' W 119°46'3 4.7
2017-Sep-11 13:22N 32°10' W 119°44'0 0.8
2017-Sep-11 13:00N 32°11' W 119°44'0 0.3
2017-Sep-11 12:30N 32°11' W 119°44'  

Dump ship's entire track history